Time;durP1;ratioP1;P1;durP2;ratioP2;P2;SDS_P1;SDS_P2;PMS_P1;PMS_P2;Temp;Humidity;BMP_temperature;BMP_pressure;BME280_temperature;BME280_humidity;BME280_pressure;Samples;Min_cycle;Max_cycle;Signal;HPM_P1;HPM_P2
2021/04/09 00:00:49;;;;;;;13.40;8.75;;;;;;;4.13;52.76;100489.44;5095871;28;20067;-62
2021/04/09 00:03:17;;;;;;;12.93;9.07;;;;;;;4.15;52.61;100488.06;5095082;28;20048;-62
2021/04/09 00:05:47;;;;;;;11.38;8.13;;;;;;;4.18;52.33;100475.66;5095721;28;20055;-62
2021/04/09 00:08:16;;;;;;;14.05;9.43;;;;;;;4.20;53.01;100481.75;5095854;28;20056;-62
2021/04/09 00:10:43;;;;;;;16.08;9.05;;;;;;;4.23;52.75;100470.19;5095906;28;20054;-61
2021/04/09 00:13:13;;;;;;;14.07;8.77;;;;;;;4.23;52.70;100464.66;5095784;28;20052;-61
2021/04/09 00:15:40;;;;;;;14.55;8.98;;;;;;;4.24;52.36;100453.38;5095565;28;20063;-61
2021/04/09 00:18:07;;;;;;;11.60;8.95;;;;;;;4.26;52.40;100464.09;5095736;28;20056;-61
2021/04/09 00:20:35;;;;;;;14.30;9.32;;;;;;;4.25;52.89;100459.72;5095594;28;20056;-61
2021/04/09 00:23:02;;;;;;;14.07;8.68;;;;;;;4.30;52.68;100459.72;5095588;28;20059;-62
2021/04/09 00:25:29;;;;;;;10.82;8.45;;;;;;;4.29;53.09;100458.06;5094782;28;20052;-61
2021/04/09 00:27:56;;;;;;;12.73;9.10;;;;;;;4.29;53.55;100458.06;5095961;28;20055;-60
2021/04/09 00:30:26;;;;;;;12.35;9.43;;;;;;;4.28;53.02;100459.16;5095293;28;20052;-62
2021/04/09 00:32:53;;;;;;;11.48;8.50;;;;;;;4.32;53.23;100443.72;5095743;28;20409;-62
2021/04/09 00:35:21;;;;;;;13.48;9.07;;;;;;;4.26;53.48;100448.41;5095497;28;20051;-61
2021/04/09 00:37:51;;;;;;;12.80;9.55;;;;;;;4.31;53.50;100442.06;5095596;28;20074;-62
2021/04/09 00:40:19;;;;;;;13.60;8.50;;;;;;;4.29;53.50;100440.69;5094379;28;20055;-61
2021/04/09 00:42:46;;;;;;;12.75;8.85;;;;;;;4.30;53.10;100434.91;5095620;28;20519;-62
2021/04/09 00:45:14;;;;;;;14.20;9.40;;;;;;;4.30;53.15;100429.38;5095092;28;20422;-61
2021/04/09 00:47:41;;;;;;;17.83;9.35;;;;;;;4.25;54.01;100432.97;5095261;28;20086;-62
2021/04/09 00:50:12;;;;;;;13.68;8.50;;;;;;;4.30;53.23;100434.91;5095545;28;20047;-62
2021/04/09 00:52:43;;;;;;;12.95;8.07;;;;;;;4.30;53.37;100431.31;5095088;28;20508;-61
2021/04/09 00:55:13;;;;;;;13.40;8.93;;;;;;;4.32;52.84;100424.41;5094940;28;20059;-62
2021/04/09 00:57:41;;;;;;;11.85;8.05;;;;;;;4.31;53.17;100420.03;5094367;28;20056;-61
2021/04/09 01:00:18;;;;;;;13.20;8.13;;;;;;;4.34;53.24;100419.47;5095467;28;20059;-61
2021/04/09 01:02:45;;;;;;;11.05;7.65;;;;;;;4.36;53.32;100419.19;5095431;28;20055;-61
2021/04/09 01:05:14;;;;;;;11.50;7.93;;;;;;;4.38;52.87;100411.47;5094198;28;20064;-62
2021/04/09 01:07:42;;;;;;;11.95;7.70;;;;;;;4.41;52.84;100413.66;5054455;28;20067;-62
2021/04/09 01:10:10;;;;;;;13.13;7.88;;;;;;;4.43;52.83;100411.47;5053836;28;20053;-61
2021/04/09 01:12:38;;;;;;;10.50;7.47;;;;;;;4.46;52.64;100400.72;5054585;28;20490;-62
2021/04/09 01:15:07;;;;;;;10.88;6.70;;;;;;;4.48;52.49;100401.28;5071075;28;20492;-62
2021/04/09 01:17:39;;;;;;;10.37;7.27;;;;;;;4.53;52.20;100403.19;5074780;28;20497;-61
2021/04/09 01:20:43;;;;;;;9.00;6.47;;;;;;;4.60;52.02;100400.16;5074108;28;20490;-61
2021/04/09 01:23:42;;;;;;;12.15;6.88;;;;;;;4.65;52.08;100405.69;5074137;28;20086;-62
2021/04/09 01:26:59;;;;;;;9.60;6.50;;;;;;;4.71;51.74;100399.06;5046347;28;20053;-61
2021/04/09 01:29:49;;;;;;;10.88;6.45;;;;;;;4.75;51.61;100394.66;5054578;28;20045;-62
2021/04/09 01:32:17;;;;;;;8.73;5.90;;;;;;;4.80;51.82;100394.63;5054612;28;20064;-61
2021/04/09 01:34:46;;;;;;;7.93;5.93;;;;;;;4.84;51.11;100389.38;5054035;28;20049;-62
2021/04/09 01:37:16;;;;;;;8.93;5.70;;;;;;;4.87;51.35;100386.91;5054572;28;20068;-61
2021/04/09 01:39:51;;;;;;;9.82;6.00;;;;;;;4.96;50.59;100389.94;5070077;28;20048;-62
2021/04/09 01:42:20;;;;;;;9.38;5.20;;;;;;;4.99;50.99;100391.28;5073937;28;20057;-62
2021/04/09 01:44:51;;;;;;;10.60;5.67;;;;;;;5.06;50.88;100389.06;5073777;28;20504;-62
2021/04/09 01:47:23;;;;;;;8.15;5.15;;;;;;;5.12;49.94;100387.94;5074378;28;20044;-62
2021/04/09 01:49:54;;;;;;;9.32;5.03;;;;;;;5.16;49.84;100386.28;5074003;28;20492;-62
2021/04/09 01:52:23;;;;;;;13.82;6.38;;;;;;;5.21;49.59;100386.28;5073737;28;20049;-62
2021/04/09 01:54:52;;;;;;;8.93;5.70;;;;;;;5.27;49.48;100378.78;5073689;28;20055;-63
2021/04/09 01:57:21;;;;;;;7.63;4.60;;;;;;;5.27;49.50;100371.34;5073771;28;20064;-63
2021/04/09 01:59:52;;;;;;;7.30;4.80;;;;;;;5.35;49.23;100366.34;5073878;28;20052;-63
2021/04/09 02:02:21;;;;;;;5.75;3.97;;;;;;;5.34;49.59;100362.75;5074136;28;20053;-63
2021/04/09 02:04:50;;;;;;;7.22;4.93;;;;;;;5.38;49.36;100354.75;5073356;28;20053;-63
2021/04/09 02:07:21;;;;;;;10.05;4.93;;;;;;;5.41;49.30;100359.69;5073185;28;20059;-62
2021/04/09 02:09:50;;;;;;;13.80;6.45;;;;;;;5.46;49.02;100343.09;5073238;28;20048;-63
2021/04/09 02:12:19;;;;;;;8.73;4.60;;;;;;;5.48;49.04;100346.38;5073853;28;20501;-63
2021/04/09 02:14:46;;;;;;;10.25;4.93;;;;;;;5.52;49.34;100344.69;5072682;28;20060;-63
2021/04/09 02:17:14;;;;;;;8.93;5.90;;;;;;;5.53;49.23;100348.31;5073263;28;20478;-63
2021/04/09 02:19:43;;;;;;;7.35;4.90;;;;;;;5.55;49.54;100337.81;5072828;28;20052;-63
2021/04/09 02:22:11;;;;;;;10.73;6.05;;;;;;;5.56;49.22;100334.75;5072866;28;20059;-63
2021/04/09 02:24:38;;;;;;;10.18;5.18;;;;;;;5.62;49.10;100327.25;5072727;28;20056;-62
2021/04/09 02:27:06;;;;;;;9.68;5.55;;;;;;;5.64;48.98;100323.09;5072953;28;20055;-63
2021/04/09 02:29:34;;;;;;;9.55;5.10;;;;;;;5.67;48.71;100316.19;5073251;28;20064;-63
2021/04/09 02:32:01;;;;;;;8.23;5.07;;;;;;;5.72;48.82;100316.16;5072585;28;20045;-63
2021/04/09 02:34:28;;;;;;;9.20;5.15;;;;;;;5.73;48.61;100314.19;5073090;28;20055;-62
2021/04/09 02:36:56;;;;;;;11.20;5.88;;;;;;;5.73;48.84;100315.03;5072495;28;20477;-62
2021/04/09 02:39:28;;;;;;;7.68;4.97;;;;;;;5.75;48.84;100309.22;5072791;28;20063;-62
2021/04/09 02:41:59;;;;;;;6.95;5.05;;;;;;;5.76;48.59;100311.69;5073605;28;20053;-62
2021/04/09 02:44:26;;;;;;;10.25;4.70;;;;;;;5.78;48.27;100305.91;5072891;28;20060;-62
2021/04/09 02:46:57;;;;;;;8.00;5.40;;;;;;;5.79;48.47;100299.25;5072666;28;20059;-62
2021/04/09 02:49:30;;;;;;;10.48;5.25;;;;;;;5.81;48.36;100308.06;5072771;28;20401;-62
2021/04/09 02:52:01;;;;;;;9.63;5.78;;;;;;;5.77;48.42;100294.00;5073056;28;20059;-61
2021/04/09 02:54:30;;;;;;;8.77;5.00;;;;;;;5.82;48.45;100298.69;5073163;28;20056;-62
2021/04/09 02:56:58;;;;;;;10.88;4.65;;;;;;;5.82;48.38;100304.22;5072597;28;20051;-62
2021/04/09 02:59:28;;;;;;;9.73;5.07;;;;;;;5.81;48.38;100283.19;5073004;28;20052;-61
2021/04/09 03:01:55;;;;;;;;;;;;;;;5.78;48.51;100276.31;5072763;28;20056;-62
2021/04/09 03:04:22;;;;;;;8.82;4.75;;;;;;;5.79;48.45;100277.94;5078492;28;19920;-62
2021/04/09 03:06:50;;;;;;;9.02;5.60;;;;;;;5.74;48.44;100271.66;5090255;28;20044;-62
2021/04/09 03:09:17;;;;;;;10.65;5.55;;;;;;;5.76;48.49;100264.72;5092810;28;20058;-62
2021/04/09 03:11:45;;;;;;;7.78;5.32;;;;;;;5.81;48.48;100263.84;5092782;28;20056;-62
2021/04/09 03:14:12;;;;;;;8.63;5.07;;;;;;;5.81;48.45;100258.31;5093006;28;20052;-62
2021/04/09 03:16:45;;;;;;;7.35;5.50;;;;;;;5.86;48.21;100256.34;5092781;28;20052;-62
2021/04/09 03:19:12;;;;;;;10.32;5.68;;;;;;;5.93;47.97;100260.72;5092763;28;20048;-62
2021/04/09 03:21:39;;;;;;;7.55;5.07;;;;;;;5.97;47.89;100248.84;5093010;28;20040;-61
2021/04/09 03:24:07;;;;;;;10.75;5.20;;;;;;;6.02;47.89;100259.03;5089359;28;20056;-61
2021/04/09 03:26:35;;;;;;;8.02;5.25;;;;;;;6.08;47.71;100264.22;5092745;28;20051;-61
2021/04/09 03:29:03;;;;;;;8.65;5.43;;;;;;;6.07;47.57;100267.28;5092524;28;20052;-61
2021/04/09 03:31:30;;;;;;;10.55;5.40;;;;;;;6.06;47.56;100260.09;5092909;28;20481;-61
2021/04/09 03:33:56;;;;;;;9.57;5.30;;;;;;;6.12;47.77;100261.69;5096664;28;20052;-61
2021/04/09 03:36:24;;;;;;;8.38;5.43;;;;;;;6.14;47.59;100255.88;5096905;28;20056;-61
2021/04/09 03:38:51;;;;;;;10.18;5.45;;;;;;;6.19;47.59;100255.81;5096317;28;20052;-60
2021/04/09 03:41:18;;;;;;;8.07;5.15;;;;;;;6.17;47.56;100249.75;5096718;28;20063;-61
2021/04/09 03:43:46;;;;;;;9.70;5.15;;;;;;;6.20;47.09;100246.44;5094646;28;20062;-61
2021/04/09 03:46:13;;;;;;;9.05;6.00;;;;;;;6.21;47.37;100245.31;5097270;28;20423;-59
2021/04/09 03:48:40;;;;;;;8.15;5.78;;;;;;;6.19;47.35;100242.00;5096844;28;20130;-61
2021/04/09 03:51:07;;;;;;;10.57;5.65;;;;;;;6.27;47.97;100244.13;5096724;28;20392;-61
2021/04/09 03:53:34;;;;;;;8.27;5.65;;;;;;;6.29;47.61;100241.91;5096250;28;20055;-61
2021/04/09 03:56:01;;;;;;;7.78;5.70;;;;;;;6.29;47.69;100244.69;5096434;28;20056;-61
2021/04/09 03:58:28;;;;;;;8.93;5.70;;;;;;;6.29;47.09;100236.38;5095879;28;20481;-61
2021/04/09 04:00:56;;;;;;;10.20;6.10;;;;;;;6.32;47.16;100234.97;5096831;28;20048;-61
2021/04/09 04:03:23;;;;;;;13.27;6.53;;;;;;;6.31;47.63;100242.44;5096331;28;20052;-61
2021/04/09 04:05:50;;;;;;;10.65;6.65;;;;;;;6.34;47.07;100239.09;5092996;28;20398;-61
2021/04/09 04:08:17;;;;;;;9.82;6.50;;;;;;;6.34;47.47;100232.72;5096421;28;20059;-61
2021/04/09 04:10:44;;;;;;;10.68;7.35;;;;;;;6.39;47.21;100235.47;5095981;28;20075;-61
2021/04/09 04:13:11;;;;;;;9.05;6.35;;;;;;;6.43;46.84;100234.56;5095497;28;20056;-61
2021/04/09 04:15:38;;;;;;;10.45;6.07;;;;;;;6.44;47.48;100233.44;5096183;28;20374;-62
2021/04/09 04:18:06;;;;;;;10.85;6.38;;;;;;;6.38;46.83;100240.16;5095978;28;20048;-61
2021/04/09 04:20:33;;;;;;;9.55;5.75;;;;;;;6.38;46.96;100240.16;5095741;28;20070;-61
2021/04/09 04:23:00;;;;;;;9.35;6.20;;;;;;;6.33;47.25;100236.63;5087378;28;20063;-61
2021/04/09 04:25:27;;;;;;;10.95;6.20;;;;;;;6.31;47.26;100239.69;5095296;28;20052;-61
2021/04/09 04:27:54;;;;;;;12.18;6.40;;;;;;;6.33;47.28;100234.69;5096475;28;20054;-61
2021/04/09 04:30:22;;;;;;;8.10;5.78;;;;;;;6.29;47.39;100241.91;5095516;28;20052;-61
2021/04/09 04:32:49;;;;;;;9.20;5.80;;;;;;;6.21;47.70;100231.47;5095688;28;20096;-61
2021/04/09 04:35:19;;;;;;;8.73;6.40;;;;;;;6.19;47.66;100230.94;5095238;28;20060;-61
2021/04/09 04:37:46;;;;;;;11.10;6.32;;;;;;;6.15;47.85;100225.16;5095166;28;20051;-61
2021/04/09 04:40:14;;;;;;;9.45;6.07;;;;;;;6.14;48.18;100239.28;5094414;28;20063;-62
2021/04/09 04:42:40;;;;;;;9.18;6.10;;;;;;;6.16;47.99;100221.28;5095239;28;20052;-61
2021/04/09 04:45:10;;;;;;;11.93;6.72;;;;;;;6.22;47.59;100220.13;5093851;28;20052;-61
2021/04/09 04:47:37;;;;;;;11.65;6.57;;;;;;;6.24;47.87;100230.91;5094798;28;20048;-62
2021/04/09 04:50:05;;;;;;;9.50;6.05;;;;;;;6.22;47.86;100224.84;5095062;28;20358;-62
2021/04/09 04:52:36;;;;;;;10.00;6.00;;;;;;;6.24;47.88;100226.19;5095372;28;20055;-62
2021/04/09 04:55:03;;;;;;;9.63;6.28;;;;;;;6.18;47.82;100218.25;5094449;28;20052;-62
2021/04/09 04:57:30;;;;;;;8.93;5.38;;;;;;;6.20;48.09;100222.34;5094789;28;20048;-62
2021/04/09 04:59:57;;;;;;;11.10;5.88;;;;;;;6.21;47.96;100215.69;5095188;28;20055;-62
2021/04/09 05:02:24;;;;;;;11.98;6.05;;;;;;;6.18;47.71;100209.94;5094368;28;20052;-62
2021/04/09 05:04:51;;;;;;;9.95;6.00;;;;;;;6.21;48.01;100212.94;5093894;28;20048;-62
2021/04/09 05:07:18;;;;;;;10.00;6.20;;;;;;;6.27;47.89;100210.94;5077437;28;20409;-61
2021/04/09 05:09:49;;;;;;;10.93;5.45;;;;;;;6.24;48.05;100208.78;5074654;28;20052;-62
2021/04/09 05:12:15;;;;;;;8.40;5.90;;;;;;;6.30;47.86;100204.84;5074835;28;20053;-61
2021/04/09 05:14:42;;;;;;;10.63;6.28;;;;;;;6.25;48.04;100214.00;5074221;28;20087;-62
2021/04/09 05:17:09;;;;;;;10.68;6.22;;;;;;;6.30;47.92;100204.84;5074748;28;20040;-62
2021/04/09 05:19:36;;;;;;;10.38;5.90;;;;;;;6.34;47.91;100205.91;5074138;28;20060;-62
2021/04/09 05:22:03;;;;;;;8.25;5.28;;;;;;;6.39;47.75;100196.72;5074467;28;20057;-62
2021/04/09 05:24:30;;;;;;;9.45;5.93;;;;;;;6.41;47.83;100200.84;5075372;28;20052;-62
2021/04/09 05:26:58;;;;;;;9.80;5.85;;;;;;;6.43;47.79;100198.63;5074511;28;20044;-62
2021/04/09 05:29:25;;;;;;;7.30;5.50;;;;;;;6.48;47.90;100201.31;5074244;28;20420;-62
2021/04/09 05:31:52;;;;;;;9.27;6.75;;;;;;;6.50;47.52;100198.25;5074304;28;20063;-61
2021/04/09 05:34:19;;;;;;;8.20;5.65;;;;;;;6.56;47.26;100205.38;5074434;28;20044;-62
2021/04/09 05:36:46;;;;;;;9.52;6.10;;;;;;;6.63;47.34;100205.03;5074347;28;20412;-62
2021/04/09 05:39:13;;;;;;;11.85;6.65;;;;;;;6.63;47.31;100207.78;5075089;28;20400;-61
2021/04/09 05:41:40;;;;;;;6.97;5.47;;;;;;;6.72;46.91;100208.81;5074273;28;20055;-62
2021/04/09 05:44:08;;;;;;;8.68;6.28;;;;;;;6.78;46.88;100207.59;5073602;28;20048;-62
2021/04/09 05:46:35;;;;;;;10.50;6.35;;;;;;;6.89;46.48;100205.56;5074293;28;20055;-62
2021/04/09 05:49:02;;;;;;;8.75;6.00;;;;;;;6.97;46.66;100198.50;5074134;28;20063;-60
2021/04/09 05:51:30;;;;;;;9.85;5.80;;;;;;;7.08;46.44;100205.59;5073840;28;20048;-63
2021/04/09 05:53:57;;;;;;;8.80;5.75;;;;;;;7.17;46.17;100203.78;5072963;28;20390;-61
2021/04/09 05:56:23;;;;;;;11.43;5.75;;;;;;;7.32;45.50;100199.97;5072464;28;20063;-61
2021/04/09 05:58:50;;;;;;;8.27;5.47;;;;;;;7.34;45.44;100194.94;5073296;28;20053;-61
2021/04/09 06:01:18;;;;;;;9.88;5.85;;;;;;;7.42;45.34;100190.69;5074419;28;20057;-58
2021/04/09 06:03:47;;;;;;;8.35;5.80;;;;;;;7.50;45.83;100192.78;5073569;28;20442;-60
2021/04/09 06:06:14;;;;;;;9.35;5.90;;;;;;;7.53;45.31;100181.09;5073080;28;20064;-61
2021/04/09 06:08:41;;;;;;;11.85;6.38;;;;;;;7.54;44.62;100185.53;5073030;28;20049;-61
2021/04/09 06:11:09;;;;;;;8.85;5.95;;;;;;;7.68;44.88;100188.34;5073482;28;20493;-60
2021/04/09 06:13:38;;;;;;;7.85;5.30;;;;;;;7.80;44.42;100185.09;5073133;28;20060;-61
2021/04/09 06:16:06;;;;;;;8.25;6.03;;;;;;;7.90;44.31;100193.25;5073219;28;20063;-61
2021/04/09 06:18:34;;;;;;;9.20;5.55;;;;;;;8.05;44.00;100187.44;5073465;28;20045;-61
2021/04/09 06:21:01;;;;;;;9.82;5.40;;;;;;;8.14;43.72;100193.09;5065030;28;20405;-62
2021/04/09 06:23:28;;;;;;;11.00;6.25;;;;;;;8.35;43.52;100188.00;5070498;28;20056;-60
2021/04/09 06:25:55;;;;;;;9.77;6.32;;;;;;;8.36;43.13;100191.56;5072855;28;20061;-61
2021/04/09 06:28:22;;;;;;;9.77;5.47;;;;;;;8.40;43.73;100196.22;5072975;28;20055;-61
2021/04/09 06:30:49;;;;;;;10.15;5.80;;;;;;;8.41;43.57;100184.03;5073053;28;20052;-61
2021/04/09 06:33:16;;;;;;;11.13;6.00;;;;;;;8.43;43.52;100187.31;5072742;28;20052;-63
2021/04/09 06:35:46;;;;;;;9.77;5.72;;;;;;;8.42;43.40;100188.47;5073394;28;20052;-61
2021/04/09 06:38:13;;;;;;;8.43;5.40;;;;;;;8.58;42.69;100194.50;5070961;28;20059;-62
2021/04/09 06:40:41;;;;;;;8.48;5.97;;;;;;;8.71;42.83;100190.94;5070956;28;20048;-61
2021/04/09 06:43:08;;;;;;;8.60;5.25;;;;;;;8.91;42.34;100191.63;5072810;28;20063;-62
2021/04/09 06:45:37;;;;;;;7.65;5.40;;;;;;;9.18;41.16;100192.75;5072733;28;20493;-62
2021/04/09 06:48:05;;;;;;;8.85;5.57;;;;;;;9.32;40.90;100183.22;5072322;28;20056;-62
2021/04/09 06:50:32;;;;;;;11.98;6.63;;;;;;;9.46;41.50;100182.34;5072120;28;20053;-62
2021/04/09 06:53:02;;;;;;;10.70;5.68;;;;;;;9.62;40.74;100194.75;5072549;28;20056;-61
2021/04/09 06:55:30;;;;;;;7.88;5.20;;;;;;;9.70;39.95;100180.09;5072584;28;20048;-63
2021/04/09 06:57:57;;;;;;;9.45;5.18;;;;;;;9.77;39.96;100174.09;5071387;28;20053;-62
2021/04/09 07:00:32;;;;;;;10.15;5.95;;;;;;;9.95;39.74;100169.44;5073117;28;20060;-62
2021/04/09 07:02:59;;;;;;;6.55;4.72;;;;;;;10.10;39.80;100171.84;5072583;28;20497;-62
2021/04/09 07:05:26;;;;;;;8.98;5.78;;;;;;;10.24;39.52;100171.75;5072054;28;20067;-62
2021/04/09 07:07:54;;;;;;;9.55;6.03;;;;;;;10.33;39.64;100169.88;5091425;28;20389;-62
2021/04/09 07:10:24;;;;;;;7.43;5.30;;;;;;;10.59;38.57;100160.00;5092523;28;20063;-62
2021/04/09 07:13:03;;;;;;;7.18;5.18;;;;;;;10.86;38.25;100165.31;5092877;28;20052;-61
2021/04/09 07:15:37;;;;;;;9.20;5.30;;;;;;;10.80;37.80;100166.59;5092997;28;20048;-61
2021/04/09 07:18:06;;;;;;;8.40;5.35;;;;;;;10.94;37.67;100167.31;5091868;28;20055;-61
2021/04/09 07:20:34;;;;;;;8.38;5.82;;;;;;;11.10;37.70;100161.25;5083656;28;20068;-62
2021/04/09 07:23:02;;;;;;;8.43;5.75;;;;;;;11.63;36.55;100162.91;5082046;28;20052;-61
2021/04/09 07:25:33;;;;;;;7.03;4.78;;;;;;;12.77;34.56;100152.28;5090062;28;20396;-62
2021/04/09 07:28:17;;;;;;;6.15;4.68;;;;;;;13.75;32.98;100152.06;5089791;28;20048;-63
2021/04/09 07:30:49;;;;;;;8.02;4.97;;;;;;;14.57;31.04;100148.53;5088072;28;20052;-62
2021/04/09 07:33:18;;;;;;;7.35;5.53;;;;;;;15.67;29.36;100153.19;5081377;28;20110;-63
2021/04/09 07:35:47;;;;;;;7.35;4.93;;;;;;;16.79;28.12;100148.53;5081232;28;20401;-63
2021/04/09 07:38:23;;;;;;;8.50;5.18;;;;;;;17.64;26.54;100143.25;5086130;28;20413;-63
2021/04/09 07:40:56;;;;;;;7.50;5.50;;;;;;;18.34;24.86;100145.03;5081337;28;20048;-63
2021/04/09 07:43:26;;;;;;;7.78;5.38;;;;;;;18.35;24.37;100143.84;5091660;28;20075;-63
2021/04/09 07:45:56;;;;;;;10.55;5.47;;;;;;;18.86;24.05;100131.44;5088179;28;20052;-63
2021/04/09 07:48:30;;;;;;;9.13;6.30;;;;;;;19.47;22.99;100130.28;5087119;28;20048;-62
2021/04/09 07:50:58;;;;;;;7.82;5.18;;;;;;;19.72;22.63;100128.97;5086879;28;20056;-62
2021/04/09 07:53:41;;;;;;;8.68;5.95;;;;;;;20.41;22.07;100135.00;5092431;28;20055;-62
2021/04/09 07:56:10;;;;;;;9.15;5.35;;;;;;;20.74;21.03;100130.44;5091681;28;20059;-62
2021/04/09 07:58:38;;;;;;;10.57;5.68;;;;;;;21.36;20.80;100141.00;5090783;28;20047;-62
2021/04/09 08:01:17;;;;;;;8.10;5.57;;;;;;;21.49;20.36;100145.13;5091911;28;20056;-63
2021/04/09 08:03:44;;;;;;;8.70;5.63;;;;;;;21.47;20.44;100135.41;5081760;28;20057;-62
2021/04/09 08:06:13;;;;;;;9.43;6.35;;;;;;;21.75;19.88;100133.91;5087803;28;20583;-63
2021/04/09 08:08:55;;;;;;;9.35;4.95;;;;;;;21.53;19.85;100136.66;5088522;28;20045;-62
2021/04/09 08:11:27;;;;;;;8.85;5.45;;;;;;;21.57;19.90;100136.69;5090485;28;20059;-62
2021/04/09 08:14:03;;;;;;;8.45;5.78;;;;;;;21.48;19.99;100154.03;5090266;28;20056;-63
2021/04/09 08:16:33;;;;;;;7.25;5.47;;;;;;;21.31;20.01;100144.19;5092238;28;20048;-62
2021/04/09 08:19:03;;;;;;;;;;;;;;;21.41;19.91;100142.63;5094155;28;20051;-62
2021/04/09 08:21:32;;;;;;;8.77;5.22;;;;;;;21.05;20.11;100154.53;5095080;28;19990;-62
2021/04/09 08:23:59;;;;;;;8.52;5.65;;;;;;;21.16;20.24;100150.97;5095902;28;20516;-62
2021/04/09 08:26:28;;;;;;;7.78;5.75;;;;;;;21.39;20.09;100157.19;5094598;28;20056;-62
2021/04/09 08:28:57;;;;;;;9.70;6.45;;;;;;;22.23;19.17;100145.00;5081311;28;20062;-62
2021/04/09 08:31:27;;;;;;;7.13;5.60;;;;;;;22.80;18.76;100152.75;5092937;28;20052;-63
2021/04/09 08:33:55;;;;;;;7.90;5.63;;;;;;;22.89;18.29;100136.94;5091484;28;20044;-63
2021/04/09 08:36:22;;;;;;;8.63;5.78;;;;;;;22.28;19.14;100144.63;5094720;28;20055;-62
2021/04/09 08:38:52;;;;;;;9.65;6.55;;;;;;;23.48;18.00;100132.81;5091869;28;20385;-62
2021/04/09 08:41:19;;;;;;;11.38;6.03;;;;;;;23.23;17.88;100130.03;5094143;28;20067;-63
2021/04/09 08:43:47;;;;;;;8.52;5.63;;;;;;;23.53;17.75;100137.25;5091764;28;20056;-63
2021/04/09 08:46:15;;;;;;;8.60;5.88;;;;;;;23.65;17.48;100145.34;5085162;28;20051;-63
2021/04/09 08:48:42;;;;;;;8.18;5.15;;;;;;;22.82;18.18;100133.28;5090166;28;20055;-63
2021/04/09 08:51:11;;;;;;;8.95;5.25;;;;;;;22.59;18.78;100139.38;5083775;28;20048;-63
2021/04/09 08:53:39;;;;;;;10.20;5.38;;;;;;;21.81;19.64;100141.63;5093046;28;20040;-63
2021/04/09 08:56:06;;;;;;;9.35;5.07;;;;;;;20.53;21.13;100139.53;5073685;28;20060;-63
2021/04/09 08:58:44;;;;;;;9.18;5.60;;;;;;;19.47;22.69;100141.59;5094644;28;20048;-62
2021/04/09 09:01:13;;;;;;;8.77;5.95;;;;;;;19.45;22.63;100131.88;5085760;28;20048;-62
2021/04/09 09:03:41;;;;;;;10.95;5.45;;;;;;;19.80;22.31;100127.88;5081090;28;20052;-62
2021/04/09 09:06:09;;;;;;;8.70;6.10;;;;;;;19.77;22.46;100121.00;5082831;28;20060;-62
2021/04/09 09:09:01;;;;;;;8.88;5.07;;;;;;;20.14;22.50;100127.84;5080459;28;20055;-62
2021/04/09 09:11:51;;;;;;;7.18;5.20;;;;;;;20.67;22.52;100122.72;5089974;28;20048;-62
2021/04/09 09:14:39;;;;;;;8.73;4.90;;;;;;;20.83;21.95;100130.94;5087690;28;20052;-63
2021/04/09 09:17:48;;;;;;;8.77;5.57;;;;;;;20.93;22.41;100129.38;5087666;28;20515;-63
2021/04/09 09:20:18;;;;;;;12.25;5.05;;;;;;;21.17;21.98;100136.44;5089914;28;20138;-63
2021/04/09 09:22:56;;;;;;;7.78;5.22;;;;;;;21.69;21.49;100147.63;5094221;28;20060;-63
2021/04/09 09:25:34;;;;;;;8.25;4.78;;;;;;;21.93;21.01;100126.28;5087510;28;20152;-62
2021/04/09 09:28:02;;;;;;;7.88;5.30;;;;;;;22.60;19.96;100127.63;5083845;28;20048;-62
2021/04/09 09:30:37;;;;;;;8.73;5.40;;;;;;;24.70;17.65;100124.41;5089611;28;20047;-63
2021/04/09 09:33:26;;;;;;;9.05;5.53;;;;;;;25.71;16.80;100124.19;5095588;28;20488;-63
2021/04/09 09:36:09;;;;;;;8.70;5.80;;;;;;;26.80;15.94;100126.31;5093599;28;20044;-63
2021/04/09 09:38:47;;;;;;;8.10;5.15;;;;;;;25.91;15.68;100117.81;5089358;28;20056;-63
2021/04/09 09:41:47;;;;;;;6.88;5.53;;;;;;;26.59;15.98;100122.56;5094513;28;20434;-63
2021/04/09 09:44:28;;;;;;;6.32;4.65;;;;;;;25.99;16.50;100118.53;5094720;28;20409;-63
2021/04/09 09:46:58;;;;;;;9.45;5.03;;;;;;;27.78;15.70;100109.69;5078350;28;20063;-63
2021/04/09 09:49:25;;;;;;;;;;;;;;;28.47;14.55;100111.84;5094190;28;20040;-63
2021/04/09 09:51:55;;;;;;;10.85;6.22;;;;;;;27.49;15.40;100118.91;5085616;28;19920;-64
2021/04/09 09:54:26;;;;;;;8.95;5.32;;;;;;;28.02;14.52;100118.22;5094253;28;20055;-63
2021/04/09 09:56:53;;;;;;;7.43;5.30;;;;;;;27.59;14.94;100116.25;5093956;28;20051;-63
2021/04/09 09:59:21;;;;;;;7.40;4.13;;;;;;;26.58;15.45;100117.28;5094500;28;20052;-63
2021/04/09 10:01:53;;;;;;;7.55;5.20;;;;;;;25.94;16.32;100119.84;5093900;28;20048;-63
2021/04/09 10:04:20;;;;;;;6.80;4.90;;;;;;;25.44;17.58;100118.41;5093245;28;20055;-63
2021/04/09 10:06:52;;;;;;;7.32;5.53;;;;;;;27.30;15.76;100106.19;5070147;28;20057;-63
2021/04/09 10:09:27;;;;;;;8.73;4.78;;;;;;;28.96;14.15;100109.00;5054272;28;20041;-67
2021/04/09 10:11:55;;;;;;;6.50;4.88;;;;;;;28.88;14.38;100096.09;5064293;28;20064;-63
2021/04/09 10:14:22;;;;;;;9.45;7.68;;;;;;;30.49;13.73;100102.88;5074146;28;20059;-64
2021/04/09 10:16:49;;;;;;;6.90;5.55;;;;;;;29.47;14.48;100099.84;5073675;28;20501;-65
2021/04/09 10:19:16;;;;;;;10.65;9.55;;;;;;;28.95;14.77;100093.81;5073072;28;20048;-63
2021/04/09 10:21:43;;;;;;;12.82;8.30;;;;;;;29.85;15.14;100094.19;5069383;28;20056;-63
2021/04/09 10:24:12;;;;;;;7.18;4.82;;;;;;;30.21;13.86;100101.69;5060509;28;20075;-62
2021/04/09 10:26:41;;;;;;;6.05;4.25;;;;;;;31.78;12.88;100096.72;5069702;28;20052;-62
2021/04/09 10:29:22;;;;;;;5.30;4.50;;;;;;;30.39;13.49;100106.13;5072252;28;20052;-61
2021/04/09 10:31:52;;;;;;;7.28;5.40;;;;;;;31.14;12.20;100106.41;5072234;28;20063;-61
2021/04/09 10:34:20;;;;;;;6.72;4.85;;;;;;;29.36;13.70;100100.16;5070264;28;20418;-61
2021/04/09 10:36:48;;;;;;;6.90;5.22;;;;;;;27.61;14.70;100108.84;5063258;28;20462;-61
2021/04/09 10:39:16;;;;;;;8.88;5.75;;;;;;;26.27;15.80;100109.56;5072143;28;20067;-61
2021/04/09 10:41:46;;;;;;;8.57;6.30;;;;;;;25.39;17.01;100096.06;5072657;28;20089;-61
2021/04/09 10:44:17;;;;;;;7.25;4.93;;;;;;;24.41;17.85;100097.38;5072307;28;20080;-61
2021/04/09 10:46:46;;;;;;;6.78;5.07;;;;;;;23.01;19.47;100092.31;5072830;28;20056;-61
2021/04/09 10:49:16;;;;;;;9.43;6.50;;;;;;;22.41;20.73;100102.50;5067473;28;20049;-61
2021/04/09 10:51:45;;;;;;;8.27;5.53;;;;;;;21.80;21.74;100085.34;5064247;28;20052;-61
2021/04/09 10:54:14;;;;;;;8.60;5.97;;;;;;;21.56;21.39;100095.38;5071683;28;20048;-61
2021/04/09 10:56:43;;;;;;;8.98;5.65;;;;;;;21.21;21.96;100099.63;5072169;28;20052;-61
2021/04/09 10:59:12;;;;;;;8.68;5.68;;;;;;;21.08;22.42;100097.13;5072639;28;20060;-61
2021/04/09 11:01:43;;;;;;;6.82;5.97;;;;;;;21.82;22.04;100086.56;5072579;28;20066;-61
2021/04/09 11:04:14;;;;;;;8.98;5.72;;;;;;;22.53;21.20;100082.19;5072786;28;20405;-61
2021/04/09 11:06:48;;;;;;;8.02;5.85;;;;;;;21.70;22.75;100084.09;5086217;28;20047;-61
2021/04/09 11:09:15;;;;;;;8.07;6.13;;;;;;;21.03;23.35;100089.00;5091388;28;20055;-61
2021/04/09 11:11:45;;;;;;;8.98;5.70;;;;;;;20.67;23.90;100094.41;5092767;28;20515;-62
2021/04/09 11:14:17;;;;;;;6.80;5.22;;;;;;;20.18;23.15;100087.09;5092484;28;20048;-61
2021/04/09 11:16:58;;;;;;;7.00;5.68;;;;;;;19.86;23.47;100081.94;5092357;28;20052;-62
2021/04/09 11:19:30;;;;;;;7.15;5.25;;;;;;;19.46;24.66;100083.47;5092532;28;20477;-61
2021/04/09 11:21:57;;;;;;;7.55;5.43;;;;;;;19.19;25.04;100084.72;5092322;28;20052;-61
2021/04/09 11:24:28;;;;;;;7.45;5.32;;;;;;;18.82;25.39;100083.38;5089580;28;20493;-61
2021/04/09 11:26:55;;;;;;;9.68;5.65;;;;;;;19.03;25.48;100080.06;5092531;28;20052;-61
2021/04/09 11:29:28;;;;;;;6.38;5.18;;;;;;;19.13;25.17;100074.94;5092221;28;20052;-62
2021/04/09 11:32:13;;;;;;;7.70;5.22;;;;;;;18.69;25.29;100089.59;5092851;28;20048;-60
2021/04/09 11:34:42;;;;;;;8.15;5.00;;;;;;;17.99;27.04;100072.72;5092252;28;20401;-61
2021/04/09 11:37:10;;;;;;;6.97;4.78;;;;;;;17.53;27.84;100085.88;5091644;28;20052;-61
2021/04/09 11:39:49;;;;;;;7.32;5.18;;;;;;;17.30;27.97;100089.41;5085743;28;20059;-61
2021/04/09 11:42:27;;;;;;;9.02;5.28;;;;;;;17.32;28.08;100075.78;5092487;28;20052;-61